Alcova, WY (82620)

11:36 AM MST on February 07, 2016 (GMT -0700)
North Platte, Windom Floristics | | Change Station
CLOSE
Current Station
Personal Weather Station
Location: Casper, WY
Elevation: 5230 ft
Nearby Weather Stations

Elev 5230 ft 42.71 °N, 106.56 °W | Updated 11 seconds ago

Partly Cloudy
Partly Cloudy
28.5 °F
Feels Like 28 °F
N
2.3
Wind Variable Wind from NE
Gusts 2.3 mph

Today
High -- | Low -- °F
--% Chance of Precip.
Yesterday
High -- | Low -- °F
Precip. -- in
Pressure 30.52 in
Visibility 10.0 miles
Clouds Overcast 6000 ft
Windchill 28 °F
Dew Point 16 °F
Humidity 60%
Rainfall 0.00 in
Snow Depth Not available.
7:15 AM 5:28 PM
Waning Crescent, 1% visible
METAR KCPR 071753Z 12003KT 10SM OVC060 M06/M10 A3040 RMK AO2 SLP335 I6000 T10561100 11056 21133 53023
Pressure 30.52 in
Visibility 10.0 miles
Clouds Overcast 6000 ft
Windchill 28 °F
Dew Point 16 °F
Humidity 60%
Rainfall 0.00 in
Snow Depth Not available.
7:15 AM 5:28 PM
Waning Crescent, 1% visible
METAR KCPR 071753Z 12003KT 10SM OVC060 M06/M10 A3040 RMK AO2 SLP335 I6000 T10561100 11056 21133 53023

10-Day Weather Forecast

Almanac

Astronomy

Feb. 07, 2016 Rise Set
Actual Time
Civil Twilight
Nautical Twilight
Astronomical Twilight
Moon
Length of Visible Light
Length of Day
Tomorrow will be .
, % of the Moon is Illuminated

Today's Extremes

State Highs State Lows

Community

WunderPhotos

Upload Photos

1,891,280 photos uploaded!

WunderBlog® & News

Nearby

Air Quality

  Air Quality AQ Index Pollutant
Not available.

Snow Depth

Station Depth Elevation

Earthquake Activity

City Distance Mag. Time & Date
Minimum magnitude displayed is 2.5.

Coastal Water Temperatures

Place Temperature

Stations

Nearby Weather Stations

Station Location Temp. Windchill Dew Point Humidity Wind Precip. Elev Updated Type
                   

Watches & Warnings

There are currently no watches in effect.